Papere Vagabonde
Aviosuperficie Caposile LIKI



Pista 04



Pista 22

Le immagini vengono aggiornate ogni minuto
Cliccare sull'immagine per l'ingrandimento.

METAR LIPZ

2018/01/17 14:20 LIPZ
171420Z 32003KT 250V060 9000 FEW070 09/05 Q1001 NOSIG

Mappa Fronti